Time;durP1;ratioP1;P1;durP2;ratioP2;P2;SDS_P1;SDS_P2;PMS_P1;PMS_P2;Temp;Humidity;BMP_temperature;BMP_pressure;BME280_temperature;BME280_humidity;BME280_pressure;Samples;Min_cycle;Max_cycle;Signal;HPM_P1;HPM_P2
2023/01/30 00:04:11;;;;;;;25.60;16.30;;;;;;;-2.15;75.44;98861.48;221593;1276;22531;-75
2023/01/30 00:09:15;;;;;;;26.20;14.70;;;;;;;-2.20;75.25;98843.91;221301;1280;22741;-74
2023/01/30 00:14:18;;;;;;;25.90;15.20;;;;;;;-2.27;75.31;98826.11;221477;1280;22707;-75
2023/01/30 00:19:20;;;;;;;22.90;14.40;;;;;;;-2.33;75.48;98818.29;221485;1273;25577;-75
2023/01/30 00:24:22;;;;;;;24.70;15.00;;;;;;;-2.39;75.40;98810.10;221602;1270;22581;-75
2023/01/30 00:29:25;;;;;;;24.20;13.90;;;;;;;-2.46;75.45;98807.97;221380;1280;22582;-76
2023/01/30 00:34:34;;;;;;;23.50;13.50;;;;;;;-2.56;75.51;98799.13;221615;1257;23003;-76
2023/01/30 00:39:39;;;;;;;24.40;14.10;;;;;;;-2.68;75.58;98796.18;221442;1271;22582;-75
2023/01/30 00:50:04;;;;;;;23.60;13.70;;;;;;;-3.00;76.07;98782.23;221067;1278;22604;-75
2023/01/30 00:55:07;;;;;;;24.70;13.90;;;;;;;-3.18;76.50;98775.64;221582;1277;22746;-75
2023/01/30 01:00:10;;;;;;;25.20;15.60;;;;;;;-3.34;76.95;98760.19;221123;1277;25734;-75
2023/01/30 01:05:14;;;;;;;22.40;14.00;;;;;;;-3.46;77.37;98756.17;221476;1277;23371;-74
2023/01/30 01:10:17;;;;;;;23.20;13.30;;;;;;;-3.58;77.79;98744.86;221496;1276;25351;-74
2023/01/30 01:15:21;;;;;;;25.50;13.90;;;;;;;-3.64;78.05;98731.36;221319;1280;22704;-74
2023/01/30 01:20:23;;;;;;;24.50;14.20;;;;;;;-3.68;78.58;98719.61;221462;1280;24403;-74
2023/01/30 01:25:25;;;;;;;22.70;12.10;;;;;;;-3.73;78.96;98710.84;221470;1277;24306;-73
2023/01/30 01:30:27;;;;;;;18.40;11.30;;;;;;;-3.78;79.15;98700.27;221373;1275;22771;-75
2023/01/30 01:35:28;;;;;;;22.90;12.80;;;;;;;-3.80;79.55;98686.13;221507;1276;22661;-75
2023/01/30 01:45:57;;;;;;;20.40;12.70;;;;;;;-3.83;79.80;98640.89;221473;1276;22750;-74
2023/01/30 01:51:16;;;;;;;22.60;13.00;;;;;;;-3.83;79.97;98624.59;221450;1272;22698;-75
2023/01/30 01:56:19;;;;;;;20.20;11.90;;;;;;;-3.82;80.35;98615.39;221381;1272;22562;-73
2023/01/30 02:01:21;;;;;;;17.90;9.60;;;;;;;-3.79;80.55;98602.30;221339;1256;25399;-76
2023/01/30 02:06:27;;;;;;;23.40;12.50;;;;;;;-3.76;80.64;98596.27;221321;1280;22702;-74
2023/01/30 02:11:46;;;;;;;17.40;9.70;;;;;;;-3.74;80.59;98586.99;221252;1280;24353;-74
2023/01/30 02:16:48;;;;;;;19.80;11.70;;;;;;;-3.71;80.71;98587.59;221421;1276;23572;-74
2023/01/30 02:22:17;;;;;;;19.60;11.80;;;;;;;-3.67;80.87;98579.25;221156;1277;22791;-73
2023/01/30 02:27:33;;;;;;;17.60;10.90;;;;;;;-3.62;80.87;98561.74;221318;1280;24242;-74
2023/01/30 02:32:55;;;;;;;12.60;7.80;;;;;;;-3.57;81.02;98548.64;221325;1280;22680;-74
2023/01/30 02:38:09;;;;;;;15.40;8.70;;;;;;;-3.50;80.97;98550.42;221317;1272;144642;-73
2023/01/30 02:43:45;;;;;;;16.90;10.60;;;;;;;-3.42;80.97;98537.65;221357;1276;24825;-73
2023/01/30 02:48:56;;;;;;;14.90;9.10;;;;;;;-3.33;81.07;98529.05;221459;1278;22620;-74
2023/01/30 02:53:59;;;;;;;12.00;8.40;;;;;;;-3.24;80.81;98532.90;221532;1277;25500;-74
2023/01/30 02:59:07;;;;;;;13.60;9.00;;;;;;;-3.16;80.78;98532.88;221375;1276;24084;-74
2023/01/30 03:04:31;;;;;;;14.30;9.50;;;;;;;-3.10;80.75;98529.86;221319;1278;24264;-74
2023/01/30 03:09:51;;;;;;;17.50;9.50;;;;;;;-3.08;80.54;98522.13;221066;1275;25754;-73
2023/01/30 03:15:16;;;;;;;15.20;9.20;;;;;;;-3.10;80.35;98516.08;221481;1277;22569;-74
2023/01/30 03:20:22;;;;;;;15.90;9.10;;;;;;;-3.13;80.31;98516.63;221399;1275;25580;-73
2023/01/30 03:25:28;;;;;;;15.90;9.60;;;;;;;-3.15;80.51;98508.52;221592;1256;24255;-73
2023/01/30 03:30:30;;;;;;;12.80;7.50;;;;;;;-3.15;80.60;98501.27;221321;1278;25085;-72
2023/01/30 03:35:40;;;;;;;15.30;8.70;;;;;;;-3.11;80.67;98497.02;221367;1277;22682;-74
2023/01/30 03:40:43;;;;;;;13.70;8.50;;;;;;;-3.05;80.60;98490.56;221485;1277;22705;-74
2023/01/30 03:45:45;;;;;;;13.70;8.00;;;;;;;-3.00;80.68;98477.27;221520;1276;25179;-73
2023/01/30 03:50:48;;;;;;;16.00;9.50;;;;;;;-2.95;80.54;98469.99;221388;1278;26861;-73
2023/01/30 03:55:50;;;;;;;15.30;10.30;;;;;;;-2.90;80.48;98458.45;221491;1278;24386;-73
2023/01/30 04:00:56;;;;;;;16.60;9.70;;;;;;;-2.85;80.23;98444.12;221379;1277;25536;-72
2023/01/30 04:05:59;;;;;;;14.20;9.50;;;;;;;-2.80;80.20;98427.21;221335;1278;22857;-73
2023/01/30 04:11:03;;;;;;;16.90;10.10;;;;;;;-2.76;80.04;98417.48;221337;1280;22627;-73
2023/01/30 04:16:16;;;;;;;18.50;11.20;;;;;;;-2.74;79.95;98411.41;221444;1280;22553;-74
2023/01/30 04:21:45;;;;;;;16.90;9.70;;;;;;;-2.70;79.69;98401.02;221354;1267;25368;-74
2023/01/30 04:26:47;;;;;;;11.30;7.10;;;;;;;-2.67;79.68;98403.99;221471;1278;23882;-74
2023/01/30 04:31:50;;;;;;;16.70;9.80;;;;;;;-2.64;79.47;98390.48;221450;1280;23826;-74
2023/01/30 04:37:01;;;;;;;13.00;7.80;;;;;;;-2.60;79.29;98382.10;221268;1280;22636;-74
2023/01/30 04:42:04;;;;;;;16.90;9.20;;;;;;;-2.57;79.31;98382.58;221565;1278;22763;-75
2023/01/30 04:47:11;;;;;;;13.50;8.40;;;;;;;-2.54;79.02;98386.99;221304;1275;25696;-74
2023/01/30 04:52:15;;;;;;;14.90;8.40;;;;;;;-2.52;78.98;98374.37;221329;1278;23999;-74
2023/01/30 04:57:16;;;;;;;11.00;7.10;;;;;;;-2.49;78.89;98356.45;221502;1278;22601;-74
2023/01/30 05:02:21;;;;;;;13.60;7.90;;;;;;;-2.49;78.77;98348.30;221256;1275;25481;-73
2023/01/30 05:07:28;;;;;;;17.30;10.30;;;;;;;-2.48;78.66;98336.52;221395;1280;22554;-74
2023/01/30 05:12:38;;;;;;;12.00;7.10;;;;;;;-2.46;78.68;98331.45;221407;1280;24201;-73
2023/01/30 05:17:40;;;;;;;17.00;10.70;;;;;;;-2.44;78.64;98330.59;221137;1278;26860;-74
2023/01/30 05:22:45;;;;;;;15.90;10.40;;;;;;;-2.43;78.40;98317.38;221381;1278;22556;-74
2023/01/30 05:27:47;;;;;;;12.90;8.20;;;;;;;-2.42;78.39;98317.85;221367;1278;24269;-74
2023/01/30 05:32:49;;;;;;;16.40;7.60;;;;;;;-2.41;78.37;98319.63;221444;1278;22696;-74
2023/01/30 05:37:51;;;;;;;17.20;10.60;;;;;;;-2.38;78.22;98336.16;221385;1278;22861;-74
2023/01/30 05:42:53;;;;;;;16.70;10.80;;;;;;;-2.36;77.97;98307.31;221253;1278;22594;-74
2023/01/30 05:47:55;;;;;;;18.30;11.10;;;;;;;-2.36;77.89;98288.34;221257;1278;22613;-74
2023/01/30 05:53:02;;;;;;;17.10;10.50;;;;;;;-2.35;77.84;98264.47;221336;1278;24404;-73
2023/01/30 05:58:05;;;;;;;16.60;10.40;;;;;;;-2.36;77.70;98236.95;221409;1256;24236;-75
2023/01/30 06:03:06;;;;;;;18.70;11.40;;;;;;;-2.36;77.82;98236.95;221593;1276;22637;-74
2023/01/30 06:08:08;;;;;;;19.90;12.00;;;;;;;-2.35;77.61;98256.35;221474;1275;25481;-74
2023/01/30 06:13:10;;;;;;;15.30;9.00;;;;;;;-2.31;77.87;98257.46;221519;1280;22696;-74
2023/01/30 06:18:12;;;;;;;19.60;11.90;;;;;;;-2.30;77.77;98246.86;221606;1277;22719;-74
2023/01/30 06:23:15;;;;;;;15.70;8.70;;;;;;;-2.30;77.86;98251.30;221398;1279;22883;-73
2023/01/30 06:28:18;;;;;;;16.90;10.50;;;;;;;-2.27;77.75;98244.55;221411;1280;24439;-74
2023/01/30 06:33:19;;;;;;;16.80;10.70;;;;;;;-2.24;77.71;98241.23;221361;1276;26842;-73
2023/01/30 06:38:21;;;;;;;19.00;12.30;;;;;;;-2.21;77.54;98232.64;221265;1278;26720;-74
2023/01/30 06:43:24;;;;;;;16.30;9.50;;;;;;;-2.18;77.68;98236.95;221567;1272;23719;-73
2023/01/30 06:48:26;;;;;;;19.60;12.20;;;;;;;-2.13;77.41;98236.21;221785;1268;22594;-74
2023/01/30 06:53:31;;;;;;;19.40;10.40;;;;;;;-2.10;77.37;98228.52;221512;1262;23431;-73
2023/01/30 06:58:33;;;;;;;19.00;11.20;;;;;;;-2.06;77.06;98217.36;221796;1257;24371;-74
2023/01/30 07:03:34;;;;;;;16.50;9.70;;;;;;;-2.04;76.94;98222.17;221834;1259;139606;-73
2023/01/30 07:08:36;;;;;;;15.40;9.70;;;;;;;-2.02;77.03;98201.52;221689;1268;138995;-74
2023/01/30 07:13:38;;;;;;;14.80;8.90;;;;;;;-2.00;76.82;98188.39;221947;1256;25259;-73
2023/01/30 07:18:40;;;;;;;16.60;10.10;;;;;;;-1.97;76.94;98189.15;221598;1273;139685;-74
2023/01/30 07:23:42;;;;;;;16.20;8.70;;;;;;;-1.94;76.78;98174.05;221546;1262;138785;-75
2023/01/30 07:28:45;;;;;;;20.10;11.20;;;;;;;-1.92;76.46;98168.92;221536;1262;139158;-73
2023/01/30 07:33:48;;;;;;;18.30;10.90;;;;;;;-1.91;76.59;98170.69;221575;1272;139087;-74
2023/01/30 07:38:50;;;;;;;19.40;10.20;;;;;;;-1.89;76.42;98163.50;221585;1272;139075;-74
2023/01/30 07:43:52;;;;;;;16.00;9.90;;;;;;;-1.85;76.29;98156.95;221821;1262;22599;-74
2023/01/30 07:48:54;;;;;;;20.00;11.70;;;;;;;-1.81;76.21;98156.96;221351;1262;138949;-74
2023/01/30 07:54:00;;;;;;;16.60;9.90;;;;;;;-1.80;76.41;98161.03;221424;1267;139002;-75
2023/01/30 07:59:04;;;;;;;18.70;12.10;;;;;;;-1.84;76.34;98178.30;221704;1273;139670;-74
2023/01/30 08:04:06;;;;;;;22.60;12.10;;;;;;;-1.87;76.25;98162.27;221579;1273;139076;-78
2023/01/30 08:09:09;;;;;;;21.50;13.20;;;;;;;-1.89;76.43;98136.07;221737;1272;138964;-74
2023/01/30 08:14:11;;;;;;;20.10;11.80;;;;;;;-1.81;76.52;98128.11;221764;1275;22716;-75
2023/01/30 08:19:13;;;;;;;22.80;12.00;;;;;;;-1.51;76.48;98120.45;221660;1278;138444;-75
2023/01/30 08:24:15;;;;;;;19.50;12.40;;;;;;;-1.17;76.57;98122.54;221746;1275;138891;-75
2023/01/30 08:29:17;;;;;;;18.10;11.80;;;;;;;-0.95;75.70;98125.38;221523;1270;138783;-74
2023/01/30 08:34:19;;;;;;;19.10;12.50;;;;;;;-0.89;74.98;98127.90;221494;1269;138847;-74
2023/01/30 08:39:21;;;;;;;19.50;12.00;;;;;;;-0.93;74.52;98119.11;221455;1262;138850;-74
2023/01/30 08:44:24;;;;;;;26.10;14.50;;;;;;;-0.97;74.90;98128.41;221733;1280;138862;-74
2023/01/30 08:49:26;;;;;;;24.30;12.30;;;;;;;-1.01;74.81;98112.21;221821;1273;22547;-74
2023/01/30 08:54:28;;;;;;;18.20;10.90;;;;;;;-1.08;74.91;98114.85;221764;1262;138494;-74
2023/01/30 08:59:34;;;;;;;19.50;13.00;;;;;;;-1.11;74.85;98110.28;221640;1279;139368;-74
2023/01/30 09:04:36;;;;;;;20.90;12.80;;;;;;;-1.12;74.94;98104.90;221644;1269;138878;-74
2023/01/30 09:09:38;;;;;;;19.50;11.70;;;;;;;-1.11;75.31;98087.28;221565;1275;138757;-74
2023/01/30 09:14:40;;;;;;;22.90;14.60;;;;;;;-1.05;75.12;98083.70;222011;1279;138743;-74
2023/01/30 09:19:42;;;;;;;17.30;11.00;;;;;;;-0.96;75.10;98081.23;221866;1273;22708;-73
2023/01/30 09:24:44;;;;;;;16.60;10.60;;;;;;;-0.88;74.86;98072.35;221445;1266;138690;-75
2023/01/30 09:29:46;;;;;;;20.10;11.70;;;;;;;-0.81;74.74;98062.60;221628;1272;139127;-75
2023/01/30 09:34:49;;;;;;;16.00;9.30;;;;;;;-0.74;74.73;98058.00;221598;1273;138934;-75
2023/01/30 09:39:56;;;;;;;26.60;10.80;;;;;;;-0.69;75.23;98055.64;221689;1260;139087;-75
2023/01/30 09:45:23;;;;;;;21.40;12.60;;;;;;;-0.66;77.22;98042.05;221751;1273;138921;-76
2023/01/30 09:50:34;;;;;;;21.70;13.20;;;;;;;-0.71;78.53;98031.48;221648;1273;138726;-74
2023/01/30 09:55:40;;;;;;;21.20;14.20;;;;;;;-0.82;79.61;98017.34;221860;1273;22537;-74
2023/01/30 10:00:42;;;;;;;23.40;13.80;;;;;;;-0.87;80.79;98012.47;221926;1270;138567;-74
2023/01/30 10:05:52;;;;;;;22.80;15.20;;;;;;;-0.90;80.38;98017.61;221585;1271;138834;-73
2023/01/30 10:11:15;;;;;;;27.00;15.20;;;;;;;-1.01;81.44;98006.67;221463;1277;138796;-74
2023/01/30 10:16:27;;;;;;;24.60;13.90;;;;;;;-1.09;81.68;97996.11;221933;1270;139301;-74
2023/01/30 10:22:14;;;;;;;20.90;12.70;;;;;;;-1.14;82.01;97980.58;221832;1281;138786;-74
2023/01/30 10:27:19;;;;;;;22.90;12.20;;;;;;;-1.12;81.94;97969.08;221385;1279;138820;-73
2023/01/30 10:32:45;;;;;;;23.90;15.00;;;;;;;-1.08;81.76;97954.02;221686;1273;139052;-74
2023/01/30 10:37:58;;;;;;;20.90;13.50;;;;;;;-1.01;81.31;97939.45;221617;1279;25073;-75
2023/01/30 10:43:24;;;;;;;22.30;13.80;;;;;;;-0.90;81.21;97939.09;221676;1277;138631;-73
2023/01/30 10:48:43;;;;;;;21.50;12.50;;;;;;;-0.77;80.65;97948.13;221735;1275;138663;-73
2023/01/30 10:54:01;;;;;;;22.20;12.80;;;;;;;-0.65;80.24;97920.79;221779;1267;138742;-74
2023/01/30 10:59:19;;;;;;;20.20;13.40;;;;;;;-0.53;80.57;97914.84;222208;1264;138756;-74
2023/01/30 11:04:36;;;;;;;19.90;13.50;;;;;;;-0.43;80.82;97905.08;221784;1277;138834;-73
2023/01/30 11:09:43;;;;;;;16.30;10.80;;;;;;;-0.28;80.42;97899.37;221680;1277;139556;-73
2023/01/30 11:14:51;;;;;;;18.80;12.40;;;;;;;-0.18;81.01;97893.95;221820;1274;139238;-73
2023/01/30 11:19:55;;;;;;;19.00;13.00;;;;;;;-0.11;81.17;97882.71;221911;1279;25970;-74
2023/01/30 11:25:24;;;;;;;20.70;11.50;;;;;;;-0.05;81.23;97869.36;221792;1265;140188;-74
2023/01/30 11:30:32;;;;;;;24.10;12.80;;;;;;;-0.05;82.19;97853.63;221846;1259;138692;-73
2023/01/30 11:35:41;;;;;;;23.70;14.90;;;;;;;-0.15;84.12;97843.70;221411;1276;139197;-74
2023/01/30 11:40:44;;;;;;;19.30;12.10;;;;;;;-0.20;84.57;97843.97;221642;1280;140048;-73
2023/01/30 11:45:48;;;;;;;19.20;12.40;;;;;;;-0.18;85.20;97832.35;221669;1273;139520;-74
2023/01/30 11:50:57;;;;;;;25.00;15.20;;;;;;;-0.08;86.00;97824.15;222257;1280;139309;-74
2023/01/30 11:56:05;;;;;;;23.20;13.80;;;;;;;0.07;84.98;97812.67;221712;1280;22550;-74
2023/01/30 12:01:12;;;;;;;25.60;14.40;;;;;;;0.20;83.92;97816.41;221590;1276;138477;-73
2023/01/30 12:06:23;;;;;;;22.60;13.50;;;;;;;0.30;83.12;97808.20;221703;1274;138610;-74
2023/01/30 12:11:31;;;;;;;20.90;13.40;;;;;;;0.39;82.77;97805.08;221831;1257;138647;-75
2023/01/30 12:16:59;;;;;;;19.20;12.60;;;;;;;0.44;83.70;97806.46;221668;1267;138633;-73
2023/01/30 12:22:23;;;;;;;24.50;15.10;;;;;;;0.46;83.56;97804.71;221552;1270;138791;-73
2023/01/30 12:27:37;;;;;;;23.40;14.70;;;;;;;0.39;84.30;97805.95;221529;1279;139197;-73
2023/01/30 12:32:40;;;;;;;22.80;15.00;;;;;;;0.26;89.68;97805.06;221696;1273;139305;-74
2023/01/30 12:38:09;;;;;;;22.00;13.60;;;;;;;0.18;92.91;97804.13;221600;1267;22594;-74
2023/01/30 12:43:38;;;;;;;26.70;16.20;;;;;;;0.08;94.18;97788.64;221792;1257;139068;-74
2023/01/30 12:48:48;;;;;;;22.50;14.50;;;;;;;0.07;94.67;97781.38;221870;1258;138606;-75
2023/01/30 12:54:34;;;;;;;25.10;15.80;;;;;;;0.08;94.39;97775.00;221661;1273;138648;-75
2023/01/30 12:59:59;;;;;;;22.50;13.40;;;;;;;0.09;94.38;97769.34;221724;1273;139075;-73
2023/01/30 13:05:25;;;;;;;20.50;12.80;;;;;;;0.15;94.19;97765.17;221645;1265;139127;-74
2023/01/30 13:10:38;;;;;;;22.50;13.90;;;;;;;0.28;93.45;97754.73;221596;1273;138658;-76
2023/01/30 13:16:06;;;;;;;16.50;8.50;;;;;;;0.43;91.22;97755.84;221595;1269;139298;-73
2023/01/30 13:21:20;;;;;;;15.10;9.50;;;;;;;0.60;89.65;97756.92;221580;1280;138443;-73
2023/01/30 13:26:27;;;;;;;13.40;8.40;;;;;;;0.74;88.96;97754.02;221568;1276;138451;-73
2023/01/30 13:31:35;;;;;;;10.00;7.70;;;;;;;0.88;88.44;97744.62;221467;1274;22565;-73
2023/01/30 13:37:03;;;;;;;8.90;6.70;;;;;;;1.09;87.60;97751.70;221832;1265;138103;-73
2023/01/30 13:42:12;;;;;;;9.00;6.00;;;;;;;1.32;86.11;97747.05;221611;1276;138379;-74
2023/01/30 13:47:45;;;;;;;9.50;6.00;;;;;;;1.55;84.97;97745.27;221519;1257;138765;-74
2023/01/30 13:52:54;;;;;;;9.00;6.20;;;;;;;1.70;83.85;97731.52;221462;1274;138294;-73
2023/01/30 13:58:25;;;;;;;8.00;6.00;;;;;;;1.78;83.42;97722.20;221641;1276;138351;-74
2023/01/30 14:03:39;;;;;;;8.00;5.00;;;;;;;1.86;83.02;97722.27;221708;1276;138720;-76
2023/01/30 14:08:58;;;;;;;10.50;5.80;;;;;;;1.90;81.91;97723.97;221802;1273;139049;-75
2023/01/30 14:14:20;;;;;;;9.20;6.50;;;;;;;1.88;81.78;97729.70;221876;1273;25405;-75
2023/01/30 14:19:52;;;;;;;8.30;5.80;;;;;;;1.86;81.52;97725.09;221979;1274;22537;-76
2023/01/30 14:25:34;;;;;;;8.30;5.00;;;;;;;1.83;81.58;97725.38;221568;1260;138070;-74
2023/01/30 14:30:37;;;;;;;8.80;6.20;;;;;;;1.79;81.04;97724.88;221883;1257;138382;-74
2023/01/30 14:35:39;;;;;;;8.50;5.60;;;;;;;1.75;80.93;97730.52;221446;1265;346901;-73
2023/01/30 14:40:57;;;;;;;10.60;6.40;;;;;;;1.72;81.02;97731.34;221531;1272;138285;-74
2023/01/30 14:46:23;;;;;;;9.60;6.20;;;;;;;1.70;81.24;97733.83;221632;1265;139146;-74
2023/01/30 14:51:38;;;;;;;8.40;5.80;;;;;;;1.71;81.51;97739.92;221536;1274;138308;-73
2023/01/30 14:57:05;;;;;;;8.00;5.60;;;;;;;1.71;80.96;97741.84;221609;1264;138361;-76
2023/01/30 15:02:15;;;;;;;8.90;6.40;;;;;;;1.73;81.37;97750.13;221694;1267;25361;-73
2023/01/30 15:07:42;;;;;;;9.00;6.30;;;;;;;1.76;81.22;97758.86;221325;1280;24313;-73
2023/01/30 15:13:09;;;;;;;8.70;6.10;;;;;;;1.80;81.11;97771.69;221087;1275;22545;-74
2023/01/30 15:19:02;;;;;;;10.10;6.40;;;;;;;1.83;81.36;97783.30;220708;1278;25284;-74
2023/01/30 15:24:43;;;;;;;8.00;6.30;;;;;;;1.83;81.44;97784.58;220476;1283;22662;-74
2023/01/30 15:30:34;;;;;;;9.40;6.70;;;;;;;1.78;81.31;97797.85;220667;1285;22895;-74
2023/01/30 15:35:42;;;;;;;8.60;6.30;;;;;;;1.74;81.27;97795.56;220449;1277;26065;-73
2023/01/30 15:40:48;;;;;;;10.60;7.10;;;;;;;1.72;81.31;97796.91;220902;1282;22619;-74
2023/01/30 15:46:22;;;;;;;9.50;7.10;;;;;;;1.72;81.18;97798.73;221109;1278;25456;-73
2023/01/30 15:51:29;;;;;;;10.40;7.00;;;;;;;1.71;81.20;97800.48;221012;1281;22559;-74
2023/01/30 15:56:32;;;;;;;10.20;7.00;;;;;;;1.73;81.52;97806.55;221487;1282;23322;-74
2023/01/30 16:01:34;;;;;;;10.90;7.20;;;;;;;1.73;81.05;97801.88;220933;1281;22570;-75
2023/01/30 16:06:37;;;;;;;9.90;7.40;;;;;;;1.74;81.51;97810.45;220799;1282;23013;-74
2023/01/30 16:11:41;;;;;;;10.40;6.70;;;;;;;1.74;81.11;97814.96;221189;1278;22568;-74
2023/01/30 16:17:10;;;;;;;13.90;8.90;;;;;;;1.73;81.43;97827.58;220978;1274;22630;-74
2023/01/30 16:22:19;;;;;;;11.00;6.90;;;;;;;1.73;81.13;97824.29;221208;1281;25318;-74
2023/01/30 16:27:29;;;;;;;9.50;6.30;;;;;;;1.71;81.33;97824.70;221182;1278;24325;-75
2023/01/30 16:32:32;;;;;;;10.20;6.70;;;;;;;1.68;80.94;97835.58;221109;1278;22760;-74
2023/01/30 16:37:35;;;;;;;10.00;7.10;;;;;;;1.65;81.50;97847.25;221053;1281;23000;-73
2023/01/30 16:42:39;;;;;;;11.20;7.30;;;;;;;1.65;81.31;97849.36;220889;1282;22569;-73
2023/01/30 16:47:41;;;;;;;8.50;6.20;;;;;;;1.62;81.25;97848.12;221013;1280;25427;-74
2023/01/30 16:52:46;;;;;;;9.40;5.90;;;;;;;1.55;81.33;97839.67;220887;1279;24315;-74
2023/01/30 16:57:54;;;;;;;11.70;7.50;;;;;;;1.48;81.34;97829.80;221050;1281;23462;-73
2023/01/30 17:03:02;;;;;;;14.30;9.80;;;;;;;1.42;81.61;97832.15;220983;1280;22572;-74
2023/01/30 17:08:07;;;;;;;14.60;9.00;;;;;;;1.37;81.65;97836.28;221032;1278;23320;-74
2023/01/30 17:13:42;;;;;;;14.30;8.80;;;;;;;1.35;81.59;97840.14;221106;1278;25281;-74
2023/01/30 17:18:57;;;;;;;12.70;8.50;;;;;;;1.36;81.71;97847.60;220980;1282;22764;-74
2023/01/30 17:24:01;;;;;;;13.20;8.50;;;;;;;1.37;81.81;97854.11;220984;1282;25516;-74
2023/01/30 17:29:04;;;;;;;14.80;9.40;;;;;;;1.37;82.45;97847.02;221088;1278;22556;-73
2023/01/30 17:34:11;;;;;;;15.80;8.50;;;;;;;1.34;82.25;97849.21;220905;1282;25419;-74
2023/01/30 17:39:15;;;;;;;14.20;9.30;;;;;;;1.30;81.87;97834.92;220923;1282;22570;-75
2023/01/30 17:44:20;;;;;;;12.80;8.40;;;;;;;1.26;82.31;97841.23;220932;1282;22593;-73
2023/01/30 17:49:25;;;;;;;14.50;9.20;;;;;;;1.24;82.76;97833.91;221018;1282;22549;-73
2023/01/30 17:54:28;;;;;;;13.90;8.60;;;;;;;1.25;82.97;97829.81;220944;1276;23148;-73
2023/01/30 17:59:31;;;;;;;14.40;8.40;;;;;;;1.28;82.70;97830.90;221145;1275;24245;-73
2023/01/30 18:04:33;;;;;;;12.40;7.70;;;;;;;1.31;82.57;97832.88;221213;1275;22546;-74
2023/01/30 18:09:35;;;;;;;13.50;8.10;;;;;;;1.33;82.60;97827.98;221092;1281;25350;-74
2023/01/30 18:14:37;;;;;;;15.80;8.60;;;;;;;1.36;82.60;97820.60;221173;1280;25273;-74
2023/01/30 18:19:39;;;;;;;15.20;8.30;;;;;;;1.37;82.33;97818.23;220957;1282;22584;-74
2023/01/30 18:24:41;;;;;;;17.90;9.10;;;;;;;1.39;82.42;97819.06;221032;1271;22549;-74
2023/01/30 18:29:44;;;;;;;11.70;8.10;;;;;;;1.41;82.50;97823.86;221151;1281;22537;-73
2023/01/30 18:34:46;;;;;;;13.00;7.70;;;;;;;1.43;82.52;97819.06;221178;1274;22552;-74
2023/01/30 18:39:48;;;;;;;12.40;7.80;;;;;;;1.44;82.22;97812.55;220997;1280;22543;-74
2023/01/30 18:44:51;;;;;;;11.80;7.50;;;;;;;1.43;82.34;97817.95;221153;1281;25383;-73
2023/01/30 18:49:53;;;;;;;12.50;7.60;;;;;;;1.44;82.11;97817.92;221040;1278;22717;-74
2023/01/30 18:54:55;;;;;;;11.90;7.20;;;;;;;1.47;82.46;97815.31;221152;1280;22572;-74
2023/01/30 18:59:57;;;;;;;9.80;6.50;;;;;;;1.51;82.03;97816.42;220993;1281;23169;-73
2023/01/30 19:04:59;;;;;;;9.40;6.20;;;;;;;1.55;82.46;97813.59;221029;1277;22577;-74
2023/01/30 19:10:02;;;;;;;10.30;5.90;;;;;;;1.58;82.22;97822.33;221035;1281;22538;-74
2023/01/30 19:15:05;;;;;;;10.60;5.90;;;;;;;1.64;82.28;97820.98;221161;1274;24228;-73
2023/01/30 19:20:09;;;;;;;12.70;7.00;;;;;;;1.69;81.91;97826.41;220961;1274;25327;-73
2023/01/30 19:25:12;;;;;;;10.60;6.20;;;;;;;1.74;82.26;97834.42;221049;1281;25308;-73
2023/01/30 19:30:14;;;;;;;11.00;6.30;;;;;;;1.77;81.84;97827.14;221017;1278;22625;-74
2023/01/30 19:35:16;;;;;;;12.00;7.10;;;;;;;1.78;81.89;97837.02;220917;1281;22541;-75
2023/01/30 19:40:19;;;;;;;14.10;7.80;;;;;;;1.80;81.95;97855.10;220847;1279;23372;-77
2023/01/30 19:45:22;;;;;;;13.80;7.70;;;;;;;1.83;81.69;97851.70;220783;1279;24312;-75
2023/01/30 19:50:24;;;;;;;10.10;5.70;;;;;;;1.83;81.63;97850.33;220867;1278;22555;-76
2023/01/30 19:55:26;;;;;;;9.30;5.10;;;;;;;1.86;82.00;97865.33;221060;1278;23019;-76
2023/01/30 20:00:28;;;;;;;8.10;4.50;;;;;;;1.93;82.20;97855.59;220982;1281;24246;-76
2023/01/30 20:05:30;;;;;;;6.90;3.40;;;;;;;2.02;82.40;97875.46;221150;1281;24025;-76
2023/01/30 20:10:32;;;;;;;4.90;2.60;;;;;;;2.12;82.42;97873.38;220977;1278;22537;-75
2023/01/30 20:15:38;;;;;;;6.90;4.00;;;;;;;2.20;82.44;97870.52;220947;1278;22539;-76
2023/01/30 20:20:40;;;;;;;4.10;2.80;;;;;;;2.27;82.51;97880.40;221103;1281;22543;-76
2023/01/30 20:25:42;;;;;;;5.10;3.00;;;;;;;2.27;82.90;97887.95;221034;1281;22548;-77
2023/01/30 20:30:44;;;;;;;5.00;3.10;;;;;;;2.20;83.33;97891.17;221029;1281;22585;-77
2023/01/30 20:35:46;;;;;;;5.80;3.80;;;;;;;2.14;83.47;97887.06;221024;1278;23767;-76
2023/01/30 20:40:48;;;;;;;4.60;2.80;;;;;;;2.09;83.34;97876.36;220695;1272;22585;-76
2023/01/30 20:46:01;;;;;;;5.30;3.30;;;;;;;2.02;83.58;97877.73;220977;1280;24295;-76
2023/01/30 20:51:10;;;;;;;6.40;3.10;;;;;;;1.98;83.80;97893.06;221180;1274;24883;-74
2023/01/30 20:56:12;;;;;;;3.80;2.70;;;;;;;1.97;84.28;97894.21;221091;1282;23182;-76
2023/01/30 21:01:17;;;;;;;3.80;2.60;;;;;;;1.97;83.99;97892.20;220926;1281;22659;-76
2023/01/30 21:06:28;;;;;;;5.10;3.00;;;;;;;1.94;83.90;97909.27;220919;1278;22543;-76
2023/01/30 21:11:47;;;;;;;6.80;3.10;;;;;;;1.93;84.04;97905.41;220951;1278;22758;-76
2023/01/30 21:16:49;;;;;;;6.20;3.40;;;;;;;1.87;84.02;97903.39;220857;1281;23220;-76
2023/01/30 21:21:54;;;;;;;7.60;3.60;;;;;;;1.77;83.90;97917.75;221042;1278;25356;-77
2023/01/30 21:26:56;;;;;;;4.90;3.00;;;;;;;1.73;83.84;97929.67;220961;1277;23029;-76
2023/01/30 21:31:58;;;;;;;4.70;2.90;;;;;;;1.75;84.33;97943.33;221060;1277;23360;-75
2023/01/30 21:47:50;;;;;;;4.70;2.40;;;;;;;1.99;84.18;97965.07;220850;1281;22553;-75
2023/01/30 21:52:53;;;;;;;4.80;2.70;;;;;;;2.04;84.10;97974.40;220859;1281;23934;-76
2023/01/30 21:57:55;;;;;;;6.20;2.50;;;;;;;2.09;83.91;97975.46;220989;1281;24231;-75
2023/01/30 22:02:57;;;;;;;4.80;2.30;;;;;;;2.16;83.87;97988.49;220989;1278;25458;-76
2023/01/30 22:07:59;;;;;;;4.50;2.40;;;;;;;2.20;83.49;97991.20;220899;1280;23805;-75
2023/01/30 22:13:05;;;;;;;3.40;2.40;;;;;;;2.21;83.59;97989.70;221006;1281;25369;-77
2023/01/30 22:18:07;;;;;;;7.10;3.10;;;;;;;2.23;83.63;97989.24;220988;1280;22584;-77
2023/01/30 22:23:09;;;;;;;8.70;5.30;;;;;;;2.21;84.05;98005.17;221090;1277;23939;-77
2023/01/30 22:28:11;;;;;;;10.00;6.30;;;;;;;2.10;83.59;98011.16;221101;1278;26509;-75
2023/01/30 22:33:13;;;;;;;6.80;5.50;;;;;;;1.90;83.59;98025.02;221000;1277;25455;-76
2023/01/30 22:38:15;;;;;;;6.20;4.20;;;;;;;1.73;83.71;98031.86;220962;1281;22563;-75
2023/01/30 22:43:17;;;;;;;6.40;4.80;;;;;;;1.60;84.31;98039.58;220907;1279;23007;-77
2023/01/30 22:48:19;;;;;;;5.70;4.70;;;;;;;1.53;84.64;98039.70;220837;1263;22679;-76
2023/01/30 22:53:22;;;;;;;7.20;6.20;;;;;;;1.51;84.95;98050.37;220836;1278;25347;-76
2023/01/30 22:58:24;;;;;;;12.40;7.60;;;;;;;1.48;85.23;98051.92;220910;1281;22542;-76
2023/01/30 23:03:26;;;;;;;10.30;7.50;;;;;;;1.45;85.66;98050.11;221087;1278;22604;-76
2023/01/30 23:08:31;;;;;;;11.40;7.90;;;;;;;1.41;85.81;98052.87;220953;1282;22539;-76
2023/01/30 23:13:37;;;;;;;10.20;6.80;;;;;;;1.36;85.73;98059.77;220912;1281;25324;-76
2023/01/30 23:18:56;;;;;;;10.60;7.10;;;;;;;1.26;86.19;98064.55;220860;1281;22542;-76
2023/01/30 23:24:01;;;;;;;13.50;8.50;;;;;;;1.19;86.21;98070.29;220830;1282;22566;-76
2023/01/30 23:29:11;;;;;;;13.20;8.40;;;;;;;1.15;86.52;98077.77;220949;1282;22538;-75
2023/01/30 23:34:17;;;;;;;12.10;7.70;;;;;;;1.13;86.97;98083.70;220781;1275;22642;-77
2023/01/30 23:39:19;;;;;;;10.40;6.10;;;;;;;1.07;86.91;98083.06;220979;1282;22532;-75
2023/01/30 23:44:22;;;;;;;9.90;5.20;;;;;;;1.02;86.87;98087.67;220938;1281;22566;-75
2023/01/30 23:49:24;;;;;;;10.10;4.20;;;;;;;0.99;87.30;98087.28;220931;1281;23555;-76
2023/01/30 23:54:28;;;;;;;7.10;4.10;;;;;;;0.99;87.39;98088.30;220979;1281;25417;-75
2023/01/30 23:59:42;;;;;;;8.60;4.40;;;;;;;1.01;87.70;98084.15;220995;1281;22624;-76
